Time;durP1;ratioP1;P1;durP2;ratioP2;P2;SDS_P1;SDS_P2;PMS_P1;PMS_P2;Temp;Humidity;BMP_temperature;BMP_pressure;BME280_temperature;BME280_humidity;BME280_pressure;Samples;Min_cycle;Max_cycle;Signal;HPM_P1;HPM_P2
2023/09/22 00:02:04;;;;;;;9.95;4.43;;;;;;;22.26;53.29;97511.16;10288456;28;20096;-52
2023/09/22 00:07:03;;;;;;;11.60;3.83;;;;;;;22.32;52.96;97523.19;10287722;28;20100;-52
2023/09/22 00:12:02;;;;;;;10.25;4.75;;;;;;;22.28;52.27;97535.72;10288300;28;20096;-52
2023/09/22 00:17:02;;;;;;;11.00;4.82;;;;;;;22.36;52.15;97537.97;10287210;28;20073;-51
2023/09/22 00:22:02;;;;;;;9.75;4.43;;;;;;;22.38;51.96;97536.94;10288294;28;20084;-52
2023/09/22 00:27:01;;;;;;;12.10;4.60;;;;;;;22.48;52.76;97547.88;10287231;28;20069;-52
2023/09/22 00:32:00;;;;;;;7.55;4.00;;;;;;;22.28;51.95;97541.00;10285008;28;20125;-52
2023/09/22 00:36:59;;;;;;;15.95;4.03;;;;;;;22.37;51.11;97548.47;10285055;28;20068;-52
2023/09/22 00:41:59;;;;;;;13.25;4.15;;;;;;;22.35;50.28;97550.34;10266397;28;20066;-52
2023/09/22 00:46:59;;;;;;;12.48;3.85;;;;;;;22.73;48.59;97542.16;10263679;28;20065;-52
2023/09/22 00:51:58;;;;;;;9.60;3.25;;;;;;;23.02;48.01;97542.41;10281438;28;20061;-52
2023/09/22 00:56:58;;;;;;;10.63;4.72;;;;;;;23.19;48.54;97534.41;10280885;28;20108;-52
2023/09/22 01:01:57;;;;;;;12.50;3.78;;;;;;;23.23;50.11;97540.38;10283076;28;20074;-52
2023/09/22 01:06:57;;;;;;;11.90;4.10;;;;;;;22.99;49.82;97506.38;10281996;28;20064;-52
2023/09/22 01:11:56;;;;;;;9.30;3.67;;;;;;;22.92;50.85;97498.88;10281907;28;20069;-52
2023/09/22 01:16:54;;;;;;;10.75;3.95;;;;;;;22.67;50.78;97479.03;10282383;28;20121;-52
2023/09/22 01:21:53;;;;;;;13.57;4.18;;;;;;;22.54;50.69;97501.78;10283765;28;20029;-52
2023/09/22 01:26:52;;;;;;;13.07;3.38;;;;;;;22.49;49.79;97522.31;10275828;28;20041;-52
2023/09/22 01:31:51;;;;;;;12.07;4.47;;;;;;;22.51;49.89;97512.53;10278642;28;20105;-52
2023/09/22 01:36:50;;;;;;;12.93;4.43;;;;;;;22.47;50.78;97518.91;10280149;28;20113;-52
2023/09/22 01:41:49;;;;;;;7.57;3.97;;;;;;;22.43;51.05;97551.72;10280509;28;20511;-52
2023/09/22 01:46:48;;;;;;;10.95;3.63;;;;;;;22.41;52.37;97572.09;10282934;28;20400;-52
2023/09/22 01:51:47;;;;;;;6.85;3.53;;;;;;;22.34;52.15;97592.69;10284514;28;20053;-52
2023/09/22 01:56:46;;;;;;;12.27;4.05;;;;;;;22.29;52.29;97611.44;10286529;28;20033;-51
2023/09/22 02:01:45;;;;;;;12.13;3.78;;;;;;;22.30;52.50;97586.72;10287905;28;20064;-52
2023/09/22 02:06:44;;;;;;;8.93;3.88;;;;;;;22.19;53.87;97525.63;10287559;28;20080;-51
2023/09/22 02:11:43;;;;;;;9.70;4.13;;;;;;;22.21;54.76;97513.19;10282596;28;20141;-52
2023/09/22 02:16:42;;;;;;;8.60;3.85;;;;;;;22.08;55.03;97544.66;10285926;28;20034;-51
2023/09/22 02:21:41;;;;;;;10.85;4.78;;;;;;;22.00;56.06;97549.50;10285236;28;20044;-51
2023/09/22 02:26:40;;;;;;;11.70;4.63;;;;;;;21.92;56.88;97560.44;10284460;28;20054;-53
2023/09/22 02:31:39;;;;;;;13.93;3.97;;;;;;;21.81;58.08;97567.19;10285845;28;20026;-52
2023/09/22 02:36:38;;;;;;;12.77;4.60;;;;;;;21.69;58.80;97564.19;10282615;28;20034;-51
2023/09/22 02:41:37;;;;;;;12.20;4.68;;;;;;;21.60;59.45;97569.94;10284857;28;20040;-51
2023/09/22 02:46:35;;;;;;;13.80;4.82;;;;;;;21.42;60.90;97561.09;10263096;28;20042;-52
2023/09/22 02:51:34;;;;;;;11.73;4.65;;;;;;;21.24;61.34;97564.59;10285209;28;20113;-52
2023/09/22 02:56:33;;;;;;;13.82;5.28;;;;;;;21.10;61.53;97560.81;10282411;28;20525;-52
2023/09/22 03:01:33;;;;;;;11.52;4.97;;;;;;;21.07;62.68;97576.78;10282060;28;20729;-52
2023/09/22 03:06:32;;;;;;;13.63;5.05;;;;;;;20.40;63.05;97490.19;10283076;28;20076;-52
2023/09/22 03:11:31;;;;;;;12.77;5.30;;;;;;;20.82;64.16;97581.44;10279993;28;20116;-52
2023/09/22 03:16:30;;;;;;;12.27;5.55;;;;;;;20.47;66.07;97592.66;10283669;28;20112;-53
2023/09/22 03:21:29;;;;;;;11.70;5.55;;;;;;;20.26;66.92;97588.28;10281646;28;20080;-52
2023/09/22 03:26:29;;;;;;;11.40;5.32;;;;;;;20.11;68.12;97587.13;10280921;28;20032;-51
2023/09/22 03:31:27;;;;;;;17.85;7.25;;;;;;;19.88;69.38;97593.34;10272832;28;20089;-52
2023/09/22 03:36:30;;;;;;;15.82;5.80;;;;;;;19.75;70.07;97593.00;10282568;28;20032;-52
2023/09/22 03:41:29;;;;;;;18.92;6.28;;;;;;;19.60;71.23;97599.75;10283958;28;20125;-51
2023/09/22 03:46:28;;;;;;;13.07;6.60;;;;;;;19.49;71.41;97591.41;10281268;28;20118;-51
2023/09/22 03:51:28;;;;;;;14.18;7.18;;;;;;;19.41;71.93;97599.56;10279385;28;20505;-52
2023/09/22 03:56:27;;;;;;;16.48;7.50;;;;;;;19.30;72.67;97600.91;10279673;28;20197;-51
2023/09/22 04:01:26;;;;;;;18.20;6.13;;;;;;;19.13;72.98;97598.94;10282493;28;20081;-52
2023/09/22 04:06:25;;;;;;;13.95;6.03;;;;;;;19.00;73.57;97603.81;10283016;28;20034;-51
2023/09/22 04:11:24;;;;;;;16.05;6.25;;;;;;;18.91;74.10;97599.75;10279763;28;20457;-52
2023/09/22 04:16:23;;;;;;;13.95;5.07;;;;;;;18.82;74.19;97602.69;10280788;28;20501;-51
2023/09/22 04:21:23;;;;;;;15.30;4.75;;;;;;;18.74;74.29;97602.13;10280431;28;20043;-51
2023/09/22 04:26:27;;;;;;;15.18;4.72;;;;;;;18.64;74.36;97603.34;10283543;28;20061;-52
2023/09/22 04:31:28;;;;;;;11.50;5.10;;;;;;;18.59;74.96;97596.47;10281250;28;20073;-52
2023/09/22 04:36:27;;;;;;;17.55;5.55;;;;;;;18.56;75.22;97588.69;10278627;28;20092;-52
2023/09/22 04:41:26;;;;;;;17.40;5.18;;;;;;;18.53;75.05;97594.06;10284667;28;20062;-52
2023/09/22 04:46:25;;;;;;;15.60;5.95;;;;;;;18.44;77.25;97609.31;10280938;28;20498;-51
2023/09/22 04:51:27;;;;;;;16.45;5.78;;;;;;;18.31;77.66;97588.69;10282209;28;20081;-52
2023/09/22 04:56:26;;;;;;;18.58;6.88;;;;;;;18.38;77.50;97594.59;10282741;28;20080;-52
2023/09/22 05:01:26;;;;;;;15.60;6.80;;;;;;;18.26;78.96;97587.16;10279736;28;20049;-52
2023/09/22 05:06:27;;;;;;;12.27;6.60;;;;;;;18.30;79.45;97597.50;10278702;28;20073;-52
2023/09/22 05:11:26;;;;;;;15.88;7.50;;;;;;;18.43;78.96;97592.66;10279579;28;20516;-51
2023/09/22 05:16:25;;;;;;;18.17;7.80;;;;;;;18.61;78.47;97592.00;10280581;28;20037;-52
2023/09/22 05:21:24;;;;;;;19.13;7.30;;;;;;;18.64;79.05;97592.81;10276499;28;20037;-51
2023/09/22 05:26:23;;;;;;;14.27;7.22;;;;;;;18.66;79.02;97599.72;10276984;28;20522;-52
2023/09/22 05:31:22;;;;;;;11.57;6.50;;;;;;;18.57;79.28;97598.31;10265760;28;20064;-52
2023/09/22 05:36:21;;;;;;;15.20;7.57;;;;;;;18.67;79.03;97596.22;10249726;28;20034;-52
2023/09/22 05:41:20;;;;;;;17.15;8.20;;;;;;;18.80;79.18;97597.50;10278315;28;20124;-52
2023/09/22 05:46:19;;;;;;;11.48;7.63;;;;;;;19.00;78.01;97599.41;10288514;28;20066;-52
2023/09/22 05:51:19;;;;;;;15.43;7.90;;;;;;;18.97;77.42;97610.03;10285885;28;20065;-51
2023/09/22 05:56:18;;;;;;;17.50;7.78;;;;;;;19.13;77.45;97612.06;10283887;28;20078;-52
2023/09/22 06:01:17;;;;;;;18.63;8.10;;;;;;;19.15;76.63;97569.00;10278204;28;20084;-52
2023/09/22 06:06:16;;;;;;;11.93;6.22;;;;;;;19.58;75.71;97600.72;10284965;28;20065;-50
2023/09/22 06:11:15;;;;;;;14.20;6.43;;;;;;;19.80;75.09;97603.38;10279648;28;20021;-51
2023/09/22 06:16:14;;;;;;;15.07;5.75;;;;;;;19.98;73.33;97605.25;10278963;28;20679;-52
2023/09/22 06:21:13;;;;;;;15.85;5.40;;;;;;;20.18;71.48;97601.75;10284975;28;20748;-51
2023/09/22 06:26:12;;;;;;;13.95;4.65;;;;;;;20.32;71.25;97595.91;10283341;28;20483;-52
2023/09/22 06:31:11;;;;;;;12.73;4.70;;;;;;;20.53;71.28;97595.94;10278843;28;20069;-51
2023/09/22 06:36:09;;;;;;;12.35;4.70;;;;;;;20.78;70.24;97599.22;10278028;28;20034;-52
2023/09/22 06:41:16;;;;;;;13.13;4.55;;;;;;;21.10;65.34;97592.47;10280877;28;20443;-51
2023/09/22 06:46:18;;;;;;;12.00;3.95;;;;;;;21.46;65.87;97593.50;10283662;28;20145;-51
2023/09/22 06:51:18;;;;;;;9.63;3.65;;;;;;;21.66;63.41;97584.59;10279907;28;20073;-52
2023/09/22 06:56:18;;;;;;;10.00;3.67;;;;;;;21.86;60.75;97573.09;10278565;28;20194;-51
2023/09/22 07:01:17;;;;;;;5.50;3.05;;;;;;;22.41;58.08;97598.53;10248658;28;20081;-52
2023/09/22 07:06:16;;;;;;;9.45;3.90;;;;;;;22.63;57.91;97600.94;10279893;28;20068;-52
2023/09/22 07:11:18;;;;;;;13.57;3.70;;;;;;;23.05;56.21;97605.78;10280923;28;20712;-51
2023/09/22 07:16:18;;;;;;;10.35;3.67;;;;;;;23.31;56.25;97604.34;10276242;28;20528;-52
2023/09/22 07:21:17;;;;;;;12.95;4.38;;;;;;;23.62;56.17;97600.88;10284216;28;20136;-52
2023/09/22 07:26:16;;;;;;;8.48;3.90;;;;;;;23.71;55.39;97585.41;10279989;28;20113;-53
2023/09/22 07:31:20;;;;;;;11.75;4.10;;;;;;;23.89;54.78;97602.91;10277146;28;20040;-54
2023/09/22 07:36:19;;;;;;;8.95;4.28;;;;;;;24.14;53.12;97599.66;10278628;28;21025;-52
2023/09/22 07:41:18;;;;;;;11.02;4.43;;;;;;;24.52;52.87;97598.38;10278941;28;20073;-52
2023/09/22 07:46:17;;;;;;;8.73;4.15;;;;;;;24.74;50.73;97590.84;10282248;28;20041;-52
2023/09/22 07:51:16;;;;;;;12.00;4.10;;;;;;;24.86;49.99;97591.88;10266996;28;20026;-51
2023/09/22 07:56:18;;;;;;;8.93;4.70;;;;;;;25.04;49.66;97596.09;10278201;28;20059;-53
2023/09/22 08:01:17;;;;;;;14.35;4.85;;;;;;;25.02;49.00;97557.31;10271000;28;20156;-53
2023/09/22 08:06:16;;;;;;;12.93;4.38;;;;;;;25.38;48.42;97579.81;10274861;28;20088;-52
2023/09/22 08:11:17;;;;;;;14.07;5.18;;;;;;;25.65;47.12;97586.06;10278072;28;20042;-53
2023/09/22 08:16:18;;;;;;;12.15;4.88;;;;;;;26.05;45.84;97575.44;10273657;28;20121;-55
2023/09/22 08:21:17;;;;;;;11.18;4.57;;;;;;;26.23;45.73;97560.09;10273741;28;20504;-53
2023/09/22 08:26:17;;;;;;;16.48;5.13;;;;;;;26.36;44.60;97546.81;10270890;28;20142;-58
2023/09/22 08:31:16;;;;;;;11.10;4.75;;;;;;;26.53;44.26;97549.19;10278302;28;20076;-54
2023/09/22 08:36:15;;;;;;;10.85;5.07;;;;;;;26.71;44.01;97544.38;10277147;28;20038;-54
2023/09/22 08:41:15;;;;;;;13.82;5.03;;;;;;;26.99;43.15;97545.97;10272787;28;20072;-53
2023/09/22 08:46:14;;;;;;;12.27;5.38;;;;;;;27.16;42.40;97551.88;10277947;28;20469;-52
2023/09/22 08:51:14;;;;;;;13.73;5.07;;;;;;;27.22;42.29;97519.50;10267639;28;20462;-54
2023/09/22 08:56:14;;;;;;;13.20;5.28;;;;;;;27.49;41.89;97539.78;10271190;28;20092;-53
2023/09/22 09:01:14;;;;;;;17.95;5.32;;;;;;;27.72;41.55;97535.41;10282374;28;20104;-53
2023/09/22 09:06:17;;;;;;;17.77;5.20;;;;;;;27.90;40.95;97525.22;10285747;28;20053;-53
2023/09/22 09:11:16;;;;;;;9.35;4.50;;;;;;;28.09;40.03;97525.53;10285670;28;20065;-53
2023/09/22 09:16:28;;;;;;;13.35;4.95;;;;;;;28.30;40.59;97524.88;10276389;28;20037;-53
2023/09/22 09:21:28;;;;;;;13.45;5.15;;;;;;;28.45;39.08;97526.34;10282872;28;20561;-54
2023/09/22 09:26:27;;;;;;;13.27;5.07;;;;;;;28.65;39.51;97508.78;10285812;28;21527;-53
2023/09/22 09:31:46;;;;;;;11.25;4.53;;;;;;;28.73;38.89;97500.19;10283331;28;20145;-53
2023/09/22 09:36:45;;;;;;;16.67;5.18;;;;;;;28.89;38.65;97500.66;10282603;28;20148;-53
2023/09/22 09:41:44;;;;;;;9.57;4.80;;;;;;;29.06;39.21;97489.50;10282822;28;20661;-53
2023/09/22 09:46:43;;;;;;;14.05;5.03;;;;;;;29.20;38.52;97479.50;10289809;28;20029;-53
2023/09/22 09:51:46;;;;;;;10.95;4.57;;;;;;;29.27;37.68;97488.72;10283767;28;20069;-53
2023/09/22 09:56:46;;;;;;;14.73;4.75;;;;;;;29.43;37.75;97478.47;10290487;28;20065;-54
2023/09/22 10:01:45;;;;;;;16.73;5.35;;;;;;;29.58;37.87;97483.53;10287104;28;20477;-54
2023/09/22 10:06:45;;;;;;;12.43;4.60;;;;;;;29.72;37.41;97469.88;10276492;28;20061;-54
2023/09/22 10:11:44;;;;;;;20.45;5.80;;;;;;;29.78;36.99;97477.38;10282840;28;20062;-53
2023/09/22 10:16:43;;;;;;;15.57;5.28;;;;;;;29.87;37.60;97467.78;10275089;28;20089;-53
2023/09/22 10:21:45;;;;;;;13.85;5.07;;;;;;;30.15;36.70;97468.94;10270553;28;20406;-54
2023/09/22 10:26:56;;;;;;;13.43;5.35;;;;;;;30.24;36.30;97462.81;10276662;28;20065;-54
2023/09/22 10:32:17;;;;;;;15.02;5.05;;;;;;;29.43;36.13;97280.66;10285663;28;20480;-54
2023/09/22 10:37:20;;;;;;;11.07;5.40;;;;;;;30.55;35.57;97444.94;10281303;28;20084;-53
2023/09/22 10:42:20;;;;;;;21.83;6.57;;;;;;;30.64;35.83;97437.94;10274650;28;20173;-53
2023/09/22 10:47:19;;;;;;;15.93;5.65;;;;;;;30.60;34.59;97433.00;10283095;28;20113;-53
2023/09/22 10:52:18;;;;;;;17.35;5.82;;;;;;;30.13;35.27;97377.25;10274483;28;20022;-54
2023/09/22 10:57:29;;;;;;;16.75;5.47;;;;;;;30.64;33.43;97429.06;10283245;28;20037;-54
2023/09/22 11:02:29;;;;;;;21.08;6.45;;;;;;;30.66;33.24;97432.47;10282422;28;20085;-53
2023/09/22 11:07:35;;;;;;;21.33;5.53;;;;;;;30.52;33.57;97420.28;10280106;28;20078;-54
2023/09/22 11:12:34;;;;;;;20.40;6.03;;;;;;;30.71;32.70;97425.69;10284751;28;20061;-55
2023/09/22 11:17:49;;;;;;;20.13;5.60;;;;;;;30.84;31.45;97425.44;10276906;28;20196;-53
2023/09/22 11:22:50;;;;;;;18.90;5.63;;;;;;;31.11;31.67;97407.91;10263185;28;20168;-53
2023/09/22 11:27:51;;;;;;;21.95;5.63;;;;;;;30.89;31.80;97350.88;10249822;28;20077;-53
2023/09/22 11:32:49;;;;;;;17.20;5.72;;;;;;;31.59;31.86;97407.97;10263644;28;20697;-54
2023/09/22 11:37:49;;;;;;;20.65;5.40;;;;;;;31.72;30.84;97394.25;10274942;28;20489;-54
2023/09/22 11:42:48;;;;;;;22.38;5.28;;;;;;;31.81;31.97;97403.28;10272367;28;20118;-54
2023/09/22 11:47:49;;;;;;;18.27;5.93;;;;;;;31.98;31.43;97394.50;10277011;28;20069;-54
2023/09/22 11:52:49;;;;;;;24.23;6.10;;;;;;;31.82;30.27;97388.88;10276566;28;20136;-53
2023/09/22 11:57:49;;;;;;;26.52;6.82;;;;;;;31.67;30.60;97387.66;10275722;28;20125;-53
2023/09/22 12:02:48;;;;;;;22.02;5.85;;;;;;;31.97;30.93;97387.44;10280810;28;20078;-54
2023/09/22 12:07:47;;;;;;;25.15;6.07;;;;;;;32.21;30.47;97388.81;10275726;28;20030;-54
2023/09/22 12:12:46;;;;;;;20.17;6.00;;;;;;;32.35;30.27;97388.34;10280595;28;20894;-54
2023/09/22 12:17:45;;;;;;;24.52;6.90;;;;;;;31.71;28.87;97262.94;10276437;28;20524;-54
2023/09/22 12:22:44;;;;;;;28.15;6.70;;;;;;;32.75;29.67;97381.81;10279785;28;20108;-54
2023/09/22 12:27:43;;;;;;;21.90;5.78;;;;;;;32.96;28.34;97376.16;10277689;28;20033;-54
2023/09/22 12:32:42;;;;;;;15.52;5.50;;;;;;;32.96;28.60;97378.84;10277897;28;20044;-54
2023/09/22 12:37:41;;;;;;;21.88;6.20;;;;;;;33.15;29.07;97374.38;10281191;28;20128;-54
2023/09/22 12:42:40;;;;;;;28.23;6.25;;;;;;;33.17;29.07;97359.78;10282616;28;20057;-53
2023/09/22 12:47:39;;;;;;;21.13;5.45;;;;;;;33.20;27.81;97370.22;10281653;28;20070;-54
2023/09/22 12:52:38;;;;;;;23.38;6.82;;;;;;;33.13;28.06;97369.13;10282233;28;20041;-53
2023/09/22 12:57:38;;;;;;;21.15;6.43;;;;;;;33.11;28.91;97359.53;10278178;28;20088;-54
2023/09/22 13:02:39;;;;;;;22.58;6.63;;;;;;;33.36;29.01;97364.16;10282688;28;20567;-55
2023/09/22 13:07:38;;;;;;;22.83;5.75;;;;;;;33.36;28.31;97360.63;10278243;28;20069;-55
2023/09/22 13:12:39;;;;;;;22.80;6.15;;;;;;;33.07;27.56;97321.34;10282282;28;20038;-56
2023/09/22 13:17:38;;;;;;;25.45;6.90;;;;;;;33.29;28.37;97324.59;10281697;28;20069;-54
2023/09/22 13:22:37;;;;;;;22.33;6.53;;;;;;;33.60;28.60;97360.84;10280765;28;20068;-55
2023/09/22 13:27:38;;;;;;;21.70;6.57;;;;;;;33.65;28.63;97358.53;10283338;28;20069;-55
2023/09/22 13:32:37;;;;;;;19.30;6.00;;;;;;;33.72;29.09;97363.28;10276511;28;20069;-55
2023/09/22 13:37:36;;;;;;;20.80;5.88;;;;;;;33.69;28.91;97348.28;10278984;28;20065;-54
2023/09/22 13:42:35;;;;;;;20.33;6.63;;;;;;;33.68;28.67;97358.22;10280290;28;20041;-55
2023/09/22 13:47:34;;;;;;;19.48;6.05;;;;;;;33.65;27.72;97345.09;10283094;28;20056;-55
2023/09/22 13:52:33;;;;;;;19.38;5.75;;;;;;;33.57;28.21;97350.38;10286664;28;20112;-55
2023/09/22 13:57:33;;;;;;;20.75;6.82;;;;;;;33.62;28.65;97358.84;10283434;28;20056;-56
2023/09/22 14:02:32;;;;;;;17.95;6.28;;;;;;;33.18;28.28;97342.63;10281335;28;20146;-55
2023/09/22 14:07:31;;;;;;;24.60;5.70;;;;;;;33.30;26.79;97354.00;10281600;28;20140;-55
2023/09/22 14:12:31;;;;;;;24.90;6.15;;;;;;;33.27;27.68;97351.63;10279894;28;20054;-55
2023/09/22 14:17:30;;;;;;;19.85;5.75;;;;;;;33.25;27.96;97353.63;10284008;28;20088;-55
2023/09/22 14:22:28;;;;;;;22.00;6.20;;;;;;;33.31;28.39;97346.78;10280505;28;20117;-55
2023/09/22 14:27:27;;;;;;;19.77;6.50;;;;;;;33.25;27.96;97346.41;10284158;28;20030;-55
2023/09/22 14:32:27;;;;;;;19.15;5.97;;;;;;;33.29;28.42;97346.09;10280572;28;20157;-55
2023/09/22 14:37:25;;;;;;;21.10;5.95;;;;;;;32.79;28.59;97291.84;10280951;28;20066;-55
2023/09/22 14:42:25;;;;;;;20.85;6.00;;;;;;;33.05;28.28;97360.97;10282179;28;20117;-55
2023/09/22 14:47:24;;;;;;;19.38;5.70;;;;;;;33.06;28.28;97363.47;10281841;28;20095;-55
2023/09/22 14:52:23;;;;;;;19.48;6.20;;;;;;;33.05;29.33;97369.88;10281691;28;20076;-55
2023/09/22 14:57:22;;;;;;;23.50;6.88;;;;;;;32.92;28.99;97376.63;10281619;28;20215;-53
2023/09/22 15:02:24;;;;;;;26.75;6.82;;;;;;;32.84;29.37;97378.22;10279850;28;20640;-54
2023/09/22 15:07:23;;;;;;;24.42;6.68;;;;;;;32.75;30.17;97378.28;10281758;28;20109;-54
2023/09/22 15:12:22;;;;;;;21.70;5.45;;;;;;;32.58;30.42;97380.78;10280873;28;20384;-55
2023/09/22 15:17:21;;;;;;;17.05;6.28;;;;;;;32.39;30.76;97380.84;10276743;28;20030;-55
2023/09/22 15:22:20;;;;;;;24.30;6.43;;;;;;;32.20;31.16;97385.28;10280838;28;20061;-55
2023/09/22 15:27:19;;;;;;;22.33;6.65;;;;;;;32.04;31.61;97389.53;10281002;28;20166;-54
2023/09/22 15:32:18;;;;;;;23.40;6.30;;;;;;;31.82;32.24;97399.59;10280604;28;20037;-55
2023/09/22 15:37:17;;;;;;;21.85;6.80;;;;;;;31.52;33.20;97388.09;10275500;28;20050;-55
2023/09/22 15:42:17;;;;;;;20.27;6.75;;;;;;;31.22;33.73;97398.88;10279320;28;20084;-55
2023/09/22 15:47:15;;;;;;;19.50;5.38;;;;;;;30.92;34.33;97406.03;10282437;28;20076;-55
2023/09/22 15:52:14;;;;;;;16.92;6.45;;;;;;;30.62;35.29;97394.38;10267858;28;20026;-54
2023/09/22 15:57:13;;;;;;;19.65;5.47;;;;;;;30.34;35.43;97402.13;10280394;28;20030;-54
2023/09/22 16:02:12;;;;;;;15.65;5.75;;;;;;;30.12;36.28;97413.03;10258801;28;20126;-54
2023/09/22 16:07:11;;;;;;;17.25;6.50;;;;;;;29.56;36.59;97379.41;10277257;28;20113;-55
2023/09/22 16:12:11;;;;;;;17.13;5.07;;;;;;;29.59;36.65;97416.56;10270148;28;20066;-54
2023/09/22 16:17:09;;;;;;;18.65;5.75;;;;;;;29.32;37.65;97425.09;10260956;28;20065;-55
2023/09/22 16:22:09;;;;;;;17.30;5.45;;;;;;;28.97;37.78;97418.09;10278849;28;20104;-55
2023/09/22 16:27:08;;;;;;;16.15;5.50;;;;;;;28.61;38.12;97417.38;10266449;28;20545;-55
2023/09/22 16:32:09;;;;;;;20.90;6.20;;;;;;;28.53;38.90;97443.84;10278631;28;20068;-54
2023/09/22 16:37:08;;;;;;;17.67;5.97;;;;;;;28.37;38.92;97440.69;10280350;28;20069;-54
2023/09/22 16:42:07;;;;;;;15.43;5.13;;;;;;;28.21;38.91;97441.03;10273998;28;20113;-55
2023/09/22 16:47:06;;;;;;;16.52;6.07;;;;;;;28.13;39.15;97443.47;10281886;28;20108;-55
2023/09/22 16:52:05;;;;;;;14.20;5.05;;;;;;;28.08;39.01;97451.81;10277391;28;20855;-55
2023/09/22 16:57:04;;;;;;;18.52;6.40;;;;;;;28.07;39.13;97455.44;10277854;28;20724;-54
2023/09/22 17:02:04;;;;;;;18.75;6.57;;;;;;;27.96;39.37;97447.38;10280751;28;20042;-54
2023/09/22 17:07:05;;;;;;;15.18;5.65;;;;;;;27.83;39.02;97477.66;10277100;28;20065;-62
2023/09/22 17:12:04;;;;;;;23.42;7.28;;;;;;;27.76;41.89;97455.09;10280204;28;20061;-54
2023/09/22 17:17:03;;;;;;;17.98;6.60;;;;;;;27.44;43.58;97485.94;10279337;28;20065;-55
2023/09/22 17:22:02;;;;;;;18.77;6.75;;;;;;;27.40;43.43;97487.97;10289203;28;20078;-54
2023/09/22 17:27:02;;;;;;;22.80;8.52;;;;;;;27.16;43.85;97498.63;10289256;28;20014;-54
2023/09/22 17:32:01;;;;;;;17.25;6.88;;;;;;;27.22;44.20;97503.50;10283881;28;20496;-54
2023/09/22 17:37:00;;;;;;;29.00;8.07;;;;;;;27.03;44.00;97511.97;10276512;28;20726;-54
2023/09/22 17:41:59;;;;;;;26.95;7.65;;;;;;;26.98;44.17;97517.63;10285408;28;20067;-53
2023/09/22 17:46:58;;;;;;;21.42;8.05;;;;;;;26.96;44.66;97516.91;10286881;28;20084;-53
2023/09/22 17:51:57;;;;;;;18.83;6.45;;;;;;;26.94;44.17;97524.13;10287281;28;20149;-54
2023/09/22 17:56:59;;;;;;;15.02;7.40;;;;;;;26.73;44.94;97522.97;10284125;28;20129;-53
2023/09/22 18:01:58;;;;;;;24.67;7.78;;;;;;;26.73;45.58;97521.16;10287105;28;20491;-53
2023/09/22 18:06:57;;;;;;;26.65;8.40;;;;;;;26.66;47.38;97521.69;10286249;28;20446;-54
2023/09/22 18:11:56;;;;;;;24.77;8.50;;;;;;;26.61;49.33;97529.16;10282459;28;20456;-54
2023/09/22 18:16:57;;;;;;;25.70;10.45;;;;;;;26.34;50.68;97535.41;10280256;28;20192;-54
2023/09/22 18:21:56;;;;;;;23.90;9.60;;;;;;;26.04;50.63;97531.22;10283153;28;20077;-54
2023/09/22 18:26:56;;;;;;;25.48;8.45;;;;;;;25.95;50.73;97545.13;10280506;28;20133;-54
2023/09/22 18:31:55;;;;;;;19.55;7.88;;;;;;;25.76;50.96;97536.66;10283007;28;20080;-54
2023/09/22 18:36:54;;;;;;;30.67;8.10;;;;;;;25.42;51.76;97549.47;10281205;28;20441;-54
2023/09/22 18:41:53;;;;;;;23.50;7.60;;;;;;;25.44;51.84;97542.25;10283563;28;20061;-54
2023/09/22 18:46:53;;;;;;;19.55;7.55;;;;;;;25.37;52.04;97548.91;10283364;28;20037;-54
2023/09/22 18:51:53;;;;;;;21.30;7.63;;;;;;;25.20;52.33;97547.31;10280099;28;20066;-54
2023/09/22 18:56:52;;;;;;;18.33;8.55;;;;;;;25.14;52.38;97550.38;10281654;28;20138;-53
2023/09/22 19:01:51;;;;;;;21.85;7.63;;;;;;;25.07;52.86;97561.38;10282869;28;20081;-53
2023/09/22 19:06:51;;;;;;;22.80;7.35;;;;;;;24.94;53.43;97564.88;10284439;28;20038;-53
2023/09/22 19:11:50;;;;;;;20.98;8.13;;;;;;;24.54;54.00;97546.09;10285160;28;20092;-53
2023/09/22 19:16:49;;;;;;;22.35;7.82;;;;;;;24.65;54.20;97572.81;10285053;28;20034;-54
2023/09/22 19:21:48;;;;;;;18.58;7.47;;;;;;;24.45;54.52;97574.91;10286210;28;20133;-54
2023/09/22 19:26:51;;;;;;;31.08;8.82;;;;;;;24.52;54.31;97582.47;10285524;28;20105;-52
2023/09/22 19:31:50;;;;;;;20.98;8.52;;;;;;;24.46;55.35;97573.94;10283427;28;20493;-53
2023/09/22 19:36:49;;;;;;;28.55;8.35;;;;;;;24.32;55.64;97575.72;10283307;28;20049;-54
2023/09/22 19:41:48;;;;;;;20.23;6.82;;;;;;;24.15;56.15;97566.09;10283058;28;20856;-53
2023/09/22 19:46:48;;;;;;;22.00;7.70;;;;;;;24.11;56.16;97569.84;10282109;28;20033;-52
2023/09/22 19:51:47;;;;;;;20.13;7.95;;;;;;;24.00;56.29;97567.81;10280657;28;20096;-53
2023/09/22 19:56:46;;;;;;;20.95;8.07;;;;;;;24.04;56.74;97572.84;10281048;28;20029;-53
2023/09/22 20:01:45;;;;;;;20.73;7.07;;;;;;;24.00;57.17;97568.66;10284079;28;20128;-53
2023/09/22 20:06:45;;;;;;;15.10;7.15;;;;;;;23.84;58.21;97573.16;10283807;28;20073;-52
2023/09/22 20:11:44;;;;;;;21.00;6.70;;;;;;;23.81;58.03;97570.69;10280844;28;20081;-52
2023/09/22 20:16:43;;;;;;;17.95;7.47;;;;;;;23.75;58.83;97568.41;10267498;28;20037;-53
2023/09/22 20:21:42;;;;;;;23.42;7.35;;;;;;;23.67;58.83;97581.22;10271153;28;20044;-53
2023/09/22 20:26:41;;;;;;;19.95;7.45;;;;;;;23.70;58.96;97570.44;10262128;28;20066;-53
2023/09/22 20:31:40;;;;;;;18.52;7.35;;;;;;;23.66;58.86;97563.63;10266836;28;20029;-53
2023/09/22 20:36:39;;;;;;;22.17;7.03;;;;;;;23.64;59.52;97566.34;10268888;28;20529;-52
2023/09/22 20:41:38;;;;;;;24.83;8.63;;;;;;;22.52;59.81;97413.72;10284758;28;20046;-52
2023/09/22 20:46:38;;;;;;;29.42;8.68;;;;;;;23.35;60.22;97567.94;10278972;28;20022;-53
2023/09/22 20:51:40;;;;;;;22.35;8.07;;;;;;;23.06;63.29;97570.41;10260020;28;20077;-53
2023/09/22 20:56:39;;;;;;;21.50;8.02;;;;;;;22.52;63.00;97520.34;10291539;28;20081;-52
2023/09/22 21:01:40;;;;;;;18.98;7.80;;;;;;;22.47;64.55;97564.69;10293142;28;20108;-53
2023/09/22 21:06:39;;;;;;;16.25;8.07;;;;;;;22.50;64.63;97567.19;10292246;28;20516;-52
2023/09/22 21:11:38;;;;;;;22.13;8.07;;;;;;;22.38;64.87;97573.97;10292579;28;20057;-53
2023/09/22 21:16:37;;;;;;;20.25;8.00;;;;;;;22.22;66.28;97573.03;10274925;28;20080;-52
2023/09/22 21:21:36;;;;;;;25.88;8.52;;;;;;;22.16;66.15;97578.66;10293261;28;20032;-52
2023/09/22 21:26:36;;;;;;;23.90;8.88;;;;;;;22.12;66.27;97585.03;10291468;28;20493;-52
2023/09/22 21:31:38;;;;;;;22.48;8.63;;;;;;;22.14;65.97;97583.16;10291788;28;20476;-52
2023/09/22 21:36:37;;;;;;;26.35;10.60;;;;;;;22.21;66.21;97571.34;10291645;28;20434;-52
2023/09/22 21:41:37;;;;;;;22.88;10.88;;;;;;;22.23;66.54;97577.41;10287777;28;20500;-52
2023/09/22 21:46:36;;;;;;;28.00;10.50;;;;;;;22.21;66.91;97581.06;10285752;28;20084;-52
2023/09/22 21:51:35;;;;;;;25.77;11.43;;;;;;;22.12;67.40;97585.88;10286973;28;20029;-52
2023/09/22 21:56:34;;;;;;;21.92;10.13;;;;;;;22.03;67.77;97582.84;10288251;28;20029;-52
2023/09/22 22:01:33;;;;;;;26.88;10.13;;;;;;;21.88;69.37;97581.78;10287019;28;20134;-52
2023/09/22 22:06:33;;;;;;;24.85;9.98;;;;;;;21.53;69.58;97539.47;10287136;28;20065;-52
2023/09/22 22:11:33;;;;;;;32.13;10.77;;;;;;;21.72;70.16;97564.03;10286374;28;20112;-52
2023/09/22 22:16:34;;;;;;;24.25;10.18;;;;;;;21.61;70.49;97565.50;10285274;28;20050;-52
2023/09/22 22:21:36;;;;;;;21.60;10.38;;;;;;;21.51;70.63;97565.94;10284822;28;20061;-51
2023/09/22 22:26:35;;;;;;;20.30;9.68;;;;;;;21.50;70.49;97566.88;10286611;28;20088;-52
2023/09/22 22:31:35;;;;;;;21.65;9.45;;;;;;;21.43;71.29;97568.09;10277650;28;20037;-51
2023/09/22 22:36:35;;;;;;;20.67;10.13;;;;;;;21.34;71.91;97566.75;10281608;28;20112;-52
2023/09/22 22:41:34;;;;;;;22.75;9.75;;;;;;;21.12;73.39;97558.09;10267644;28;20082;-52
2023/09/22 22:46:34;;;;;;;18.55;9.77;;;;;;;21.01;73.73;97566.53;10272570;28;20029;-52
2023/09/22 22:51:33;;;;;;;24.05;9.60;;;;;;;20.96;74.12;97572.91;10270301;28;20492;-52
2023/09/22 22:56:32;;;;;;;23.20;10.25;;;;;;;20.86;74.62;97583.03;10274536;28;20493;-52